Time;durP1;ratioP1;P1;durP2;ratioP2;P2;SDS_P1;SDS_P2;PMS_P1;PMS_P2;Temp;Humidity;BMP_temperature;BMP_pressure;BME280_temperature;BME280_humidity;BME280_pressure;Samples;Min_cycle;Max_cycle;Signal;HPM_P1;HPM_P2
2023/05/28 00:00:06;;;;;;;35.78;29.23;;;461.10;2380.80;;;;;;5057460;28;20025;-82
2023/05/28 00:02:33;;;;;;;33.97;28.65;;;461.00;2380.80;;;;;;5056118;28;20100;-82
2023/05/28 00:05:00;;;;;;;33.88;27.83;;;461.10;2380.80;;;;;;5056934;28;20049;-82
2023/05/28 00:07:28;;;;;;;41.40;30.17;;;461.20;2380.80;;;;;;5056641;28;20104;-81
2023/05/28 00:09:55;;;;;;;35.05;27.35;;;461.00;2380.80;;;;;;5057835;28;20452;-83
2023/05/28 00:12:21;;;;;;;33.63;28.33;;;460.90;2380.80;;;;;;5055914;28;20021;-82
2023/05/28 00:14:47;;;;;;;31.65;27.88;;;436.10;2355.20;;;;;;5059241;28;20070;-83
2023/05/28 00:17:15;;;;;;;31.80;26.80;;;460.80;2380.80;;;;;;5057184;28;20032;-82
2023/05/28 00:19:41;;;;;;;31.02;27.10;;;460.90;2380.80;;;;;;5056454;28;20025;-82
2023/05/28 00:22:07;;;;;;;30.20;25.58;;;460.90;2380.80;;;;;;5056574;28;20021;-82
2023/05/28 00:24:33;;;;;;;31.60;27.30;;;460.90;2380.80;;;;;;5056354;28;20544;-83
2023/05/28 00:26:59;;;;;;;30.00;25.67;;;460.90;2380.80;;;;;;5056503;28;20163;-82
2023/05/28 00:29:26;;;;;;;31.38;27.73;;;461.00;2380.80;;;;;;5056573;28;20029;-84
2023/05/28 00:31:55;;;;;;;35.17;28.20;;;460.90;2380.80;;;;;;5057062;28;20476;-83
2023/05/28 00:34:25;;;;;;;31.58;27.08;;;460.90;2380.80;;;;;;5054906;28;20032;-83
2023/05/28 00:36:51;;;;;;;31.05;26.23;;;460.90;2380.80;;;;;;5055586;28;20491;-83
2023/05/28 00:39:20;;;;;;;32.72;27.73;;;461.10;2380.80;;;;;;5055324;28;20399;-83
2023/05/28 00:41:46;;;;;;;31.50;27.00;;;461.10;2380.80;;;;;;5055681;28;20452;-82
2023/05/28 00:44:12;;;;;;;32.80;27.25;;;461.20;2380.80;;;;;;5055610;28;20479;-84
2023/05/28 00:46:45;;;;;;;33.45;27.77;;;461.10;2380.80;;;;;;5054979;28;20029;-83
2023/05/28 00:49:11;;;;;;;;;;;461.10;2380.80;;;;;;5056757;28;20116;-84
2023/05/28 00:51:38;;;;;;;30.15;24.95;;;461.20;2380.80;;;;;;5056406;28;19959;-83
2023/05/28 00:54:05;;;;;;;32.05;26.02;;;461.20;2380.80;;;;;;5056334;28;20021;-84
2023/05/28 00:56:31;;;;;;;29.77;26.55;;;461.20;2380.80;;;;;;5068775;28;20013;-82
2023/05/28 00:59:00;;;;;;;29.52;25.08;;;461.20;2380.80;;;;;;5078399;28;20475;-82
2023/05/28 01:01:27;;;;;;;35.15;26.50;;;461.20;2380.80;;;;;;5054818;28;20037;-83
2023/05/28 01:03:53;;;;;;;34.45;27.70;;;461.20;2380.80;;;;;;5054787;28;20060;-83
2023/05/28 01:06:21;;;;;;;29.65;26.50;;;461.20;2380.80;;;;;;5054586;28;20110;-83
2023/05/28 01:08:48;;;;;;;28.95;25.60;;;461.20;2380.80;;;;;;5054804;28;20060;-83
2023/05/28 01:11:24;;;;;;;31.50;26.10;;;461.00;2380.80;;;;;;5054895;28;20075;-83
2023/05/28 01:13:51;;;;;;;36.20;26.77;;;460.90;2380.80;;;;;;5055756;28;20036;-83
2023/05/28 01:16:17;;;;;;;30.60;25.65;;;436.10;2355.20;;;;;;5053496;28;20123;-83
2023/05/28 01:18:47;;;;;;;29.73;24.52;;;460.90;2380.80;;;;;;5054426;28;20443;-83
2023/05/28 01:21:14;;;;;;;30.52;25.48;;;460.80;2380.80;;;;;;5055232;28;20074;-83
2023/05/28 01:23:47;;;;;;;29.95;25.92;;;436.10;2355.20;;;;;;5054480;28;20025;-84
2023/05/28 01:26:15;;;;;;;32.83;25.20;;;436.10;2355.20;;;;;;5054324;28;20029;-83
2023/05/28 01:28:45;;;;;;;31.85;25.83;;;436.10;2355.20;;;;;;5054031;28;20027;-83
2023/05/28 01:31:12;;;;;;;28.33;24.08;;;460.80;2380.80;;;;;;5054512;28;20500;-82
2023/05/28 01:33:41;;;;;;;28.23;23.60;;;436.10;2355.20;;;;;;5055450;28;20025;-84
2023/05/28 01:36:11;;;;;;;28.52;22.83;;;460.80;2380.80;;;;;;5053733;28;20036;-83
2023/05/28 01:38:39;;;;;;;29.85;24.42;;;460.80;2380.80;;;;;;5054260;28;20029;-83
2023/05/28 01:41:07;;;;;;;25.85;23.05;;;436.10;2355.20;;;;;;5054073;28;20428;-83
2023/05/28 01:43:33;;;;;;;26.98;23.98;;;460.80;2380.80;;;;;;5054684;28;20123;-82
2023/05/28 01:46:00;;;;;;;28.10;23.50;;;460.80;2380.80;;;;;;5054029;28;20118;-82
2023/05/28 01:48:26;;;;;;;26.83;23.95;;;436.10;2355.20;;;;;;5054378;28;20029;-83
2023/05/28 01:50:53;;;;;;;28.10;24.02;;;461.10;2380.80;;;;;;5053763;28;20024;-83
2023/05/28 01:53:19;;;;;;;29.15;23.90;;;436.00;2355.20;;;;;;5055004;28;20021;-83
2023/05/28 01:55:44;;;;;;;25.90;23.15;;;436.10;2355.20;;;;;;5053491;28;20028;-83
2023/05/28 01:58:10;;;;;;;26.27;23.35;;;436.10;2355.20;;;;;;5054638;28;20115;-83
2023/05/28 02:00:43;;;;;;;29.13;24.35;;;436.10;2355.20;;;;;;5053735;28;20033;-83
2023/05/28 02:03:11;;;;;;;31.95;25.85;;;436.10;2355.20;;;;;;5053035;28;20041;-84
2023/05/28 02:05:38;;;;;;;26.98;24.02;;;436.10;2355.20;;;;;;5053331;28;20408;-82
2023/05/28 02:08:04;;;;;;;34.25;25.38;;;436.10;2355.20;;;;;;5054565;28;20465;-84
2023/05/28 02:10:30;;;;;;;27.70;24.48;;;436.00;2355.20;;;;;;5054223;28;20025;-80
2023/05/28 02:12:56;;;;;;;29.92;24.52;;;436.10;2355.20;;;;;;5053444;28;20036;-82
2023/05/28 02:15:22;;;;;;;30.00;25.38;;;435.90;2355.20;;;;;;5053157;28;20427;-83
2023/05/28 02:17:49;;;;;;;31.83;24.52;;;436.00;2355.20;;;;;;5052863;28;20021;-83
2023/05/28 02:20:15;;;;;;;27.25;24.38;;;436.00;2355.20;;;;;;5053185;28;20017;-83
2023/05/28 02:22:40;;;;;;;26.88;23.08;;;436.10;2355.20;;;;;;5053422;28;20484;-82
2023/05/28 02:25:06;;;;;;;27.88;24.52;;;436.10;2355.20;;;;;;5053071;28;20037;-82
2023/05/28 02:27:32;;;;;;;28.60;22.92;;;436.00;2355.20;;;;;;5053150;28;20032;-82
2023/05/28 02:29:58;;;;;;;27.98;24.25;;;436.10;2355.20;;;;;;5054622;28;20021;-82
2023/05/28 02:32:24;;;;;;;30.10;24.35;;;436.10;2355.20;;;;;;5052897;28;20021;-82
2023/05/28 02:34:50;;;;;;;27.52;22.77;;;436.10;2355.20;;;;;;5054601;28;20028;-82
2023/05/28 02:37:16;;;;;;;27.35;24.23;;;436.00;2355.20;;;;;;5052968;28;20028;-82
2023/05/28 02:39:42;;;;;;;27.60;23.08;;;436.10;2355.20;;;;;;5035671;28;20040;-81
2023/05/28 02:42:07;;;;;;;24.92;22.13;;;436.00;2355.20;;;;;;5033042;28;20025;-82
2023/05/28 02:44:33;;;;;;;27.20;24.30;;;436.10;2355.20;;;;;;5032910;28;20017;-82
2023/05/28 02:46:59;;;;;;;27.13;24.10;;;436.10;2355.20;;;;;;5031111;28;20477;-81
2023/05/28 02:49:25;;;;;;;30.00;25.92;;;436.10;2355.20;;;;;;5042669;28;20025;-81
2023/05/28 02:51:50;;;;;;;30.75;24.17;;;436.10;2355.20;;;;;;5052589;28;20113;-82
2023/05/28 02:54:16;;;;;;;26.60;23.02;;;436.10;2355.20;;;;;;5052915;28;20472;-82
2023/05/28 02:56:42;;;;;;;27.73;23.67;;;436.10;2355.20;;;;;;5053552;28;20025;-82
2023/05/28 02:59:08;;;;;;;25.15;22.48;;;436.00;2355.20;;;;;;5053925;28;20053;-82
2023/05/28 03:01:34;;;;;;;28.92;23.58;;;436.10;2355.20;;;;;;5052683;28;20031;-83
2023/05/28 03:03:59;;;;;;;27.13;23.50;;;436.10;2355.20;;;;;;5052382;28;20117;-83
2023/05/28 03:06:27;;;;;;;30.88;25.00;;;435.90;2355.20;;;;;;5052611;28;20075;-82
2023/05/28 03:08:52;;;;;;;34.22;24.95;;;435.70;2355.20;;;;;;5054010;28;20112;-83
2023/05/28 03:11:18;;;;;;;27.52;22.88;;;435.80;2355.20;;;;;;5052602;28;20051;-82
2023/05/28 03:13:45;;;;;;;28.90;24.20;;;435.90;2355.20;;;;;;5052497;28;20021;-83
2023/05/28 03:16:11;;;;;;;30.10;24.20;;;435.90;2355.20;;;;;;5054075;28;20113;-82
2023/05/28 03:18:37;;;;;;;30.38;24.90;;;435.90;2355.20;;;;;;5053450;28;20119;-82
2023/05/28 03:21:03;;;;;;;31.13;25.38;;;435.80;2355.20;;;;;;5052545;28;20411;-83
2023/05/28 03:23:28;;;;;;;25.98;23.17;;;435.90;2355.20;;;;;;5052190;28;20090;-82
2023/05/28 03:25:54;;;;;;;30.77;23.60;;;436.00;2355.20;;;;;;5052354;28;20063;-82
2023/05/28 03:28:20;;;;;;;27.58;23.38;;;436.10;2355.20;;;;;;5052015;28;20047;-82
2023/05/28 03:30:46;;;;;;;25.92;23.13;;;436.00;2355.20;;;;;;5052810;28;20120;-82
2023/05/28 03:33:11;;;;;;;29.30;23.75;;;436.10;2355.20;;;;;;5052834;28;20483;-83
2023/05/28 03:35:37;;;;;;;26.88;22.80;;;436.10;2355.20;;;;;;5053801;28;20029;-80
2023/05/28 03:38:03;;;;;;;25.13;22.42;;;460.80;2380.80;;;;;;5053589;28;20362;-82
2023/05/28 03:40:29;;;;;;;27.10;24.00;;;460.80;2380.80;;;;;;5052854;28;20361;-84
2023/05/28 03:42:54;;;;;;;27.80;24.73;;;436.10;2355.20;;;;;;5052920;28;20030;-82
2023/05/28 03:45:20;;;;;;;29.98;24.05;;;436.00;2355.20;;;;;;5056436;28;20060;-80
2023/05/28 03:47:46;;;;;;;31.23;23.90;;;436.10;2355.20;;;;;;5062655;28;20104;-79
2023/05/28 03:50:12;;;;;;;27.13;22.45;;;436.10;2355.20;;;;;;5061756;28;20083;-80
2023/05/28 03:52:38;;;;;;;30.50;24.15;;;436.10;2355.20;;;;;;5063472;28;20036;-79
2023/05/28 03:55:04;;;;;;;25.13;22.52;;;436.10;2355.20;;;;;;5057830;28;20021;-83
2023/05/28 03:57:30;;;;;;;30.90;23.55;;;460.80;2380.80;;;;;;5054349;28;20036;-83
2023/05/28 03:59:57;;;;;;;30.25;24.10;;;460.80;2380.80;;;;;;5053744;28;20021;-83
2023/05/28 04:02:23;;;;;;;28.90;23.27;;;436.10;2355.20;;;;;;5052030;28;20116;-84
2023/05/28 04:04:49;;;;;;;27.42;23.30;;;436.10;2355.20;;;;;;5052373;28;20049;-84
2023/05/28 04:07:14;;;;;;;28.00;24.13;;;460.80;2380.80;;;;;;5052327;28;20040;-84
2023/05/28 04:09:40;;;;;;;26.88;23.70;;;460.80;2380.80;;;;;;5054814;28;20082;-84
2023/05/28 04:12:07;;;;;;;30.58;24.75;;;460.90;2380.80;;;;;;5056443;28;20027;-83
2023/05/28 04:14:32;;;;;;;27.67;24.63;;;460.90;2380.80;;;;;;5058306;28;20029;-84
2023/05/28 04:16:58;;;;;;;31.45;25.60;;;460.90;2380.80;;;;;;5054193;28;20039;-82
2023/05/28 04:19:24;;;;;;;29.35;23.95;;;461.10;2380.80;;;;;;5055341;28;20028;-82
2023/05/28 04:21:50;;;;;;;27.98;24.95;;;461.10;2380.80;;;;;;5055274;28;20029;-83
2023/05/28 04:24:16;;;;;;;29.55;26.42;;;460.90;2380.80;;;;;;5055274;28;20055;-83
2023/05/28 04:26:41;;;;;;;30.98;24.70;;;460.80;2380.80;;;;;;5055291;28;20033;-83
2023/05/28 04:29:07;;;;;;;27.75;24.67;;;436.10;2355.20;;;;;;5056978;28;20025;-83
2023/05/28 04:31:33;;;;;;;28.08;24.90;;;460.80;2380.80;;;;;;5055089;28;20029;-82
2023/05/28 04:34:00;;;;;;;28.50;24.17;;;436.10;2355.20;;;;;;5055994;28;20115;-84
2023/05/28 04:36:29;;;;;;;28.95;24.23;;;436.10;2355.20;;;;;;5056335;28;20063;-83
2023/05/28 04:38:56;;;;;;;33.72;26.95;;;436.00;2355.20;;;;;;5056845;28;20067;-83
2023/05/28 04:41:23;;;;;;;33.90;24.92;;;436.00;2355.20;;;;;;5055230;28;20028;-83
2023/05/28 04:43:49;;;;;;;30.60;25.42;;;436.00;2355.20;;;;;;5061982;28;20039;-82
2023/05/28 04:46:15;;;;;;;35.47;27.05;;;436.00;2355.20;;;;;;5077291;28;20017;-82
2023/05/28 04:48:40;;;;;;;32.83;24.80;;;436.00;2355.20;;;;;;5039427;28;20029;-84
2023/05/28 04:51:07;;;;;;;30.83;26.40;;;436.10;2355.20;;;;;;5036392;28;20440;-83
2023/05/28 04:53:33;;;;;;;34.67;26.58;;;436.10;2355.20;;;;;;5035187;28;20025;-83
2023/05/28 04:56:00;;;;;;;30.58;26.40;;;436.10;2355.20;;;;;;5035009;28;20088;-82
2023/05/28 04:58:25;;;;;;;27.30;24.42;;;436.10;2355.20;;;;;;5037331;28;20040;-83
2023/05/28 05:00:52;;;;;;;29.83;24.83;;;460.90;2380.80;;;;;;5038805;28;20026;-82
2023/05/28 05:03:18;;;;;;;27.10;23.90;;;461.00;2380.80;;;;;;5039551;28;20022;-83
2023/05/28 05:05:44;;;;;;;28.02;24.00;;;461.10;2380.80;;;;;;5037690;28;20059;-83
2023/05/28 05:08:13;;;;;;;29.00;24.08;;;461.10;2380.80;;;;;;5039242;28;20461;-84
2023/05/28 05:10:39;;;;;;;27.92;24.02;;;461.00;2380.80;;;;;;5038496;28;20030;-83
2023/05/28 05:13:05;;;;;;;27.13;24.27;;;460.90;2380.80;;;;;;5037465;28;20036;-83
2023/05/28 05:15:32;;;;;;;28.10;24.40;;;461.10;2380.80;;;;;;5039680;28;20030;-82
2023/05/28 05:17:58;;;;;;;30.50;26.92;;;461.70;2380.80;;;;;;5035160;28;20033;-82
2023/05/28 05:20:24;;;;;;;29.77;25.45;;;461.20;2380.80;;;;;;5034494;28;20030;-83
2023/05/28 05:22:50;;;;;;;27.83;24.23;;;461.30;2380.80;;;;;;5036646;28;20036;-83
2023/05/28 05:25:15;;;;;;;29.00;24.30;;;461.40;2380.80;;;;;;5034679;28;20037;-83
2023/05/28 05:27:41;;;;;;;28.30;24.40;;;461.50;2380.80;;;;;;5034238;28;20025;-82
2023/05/28 05:30:08;;;;;;;31.35;24.30;;;461.40;2380.80;;;;;;5034513;28;20449;-83
2023/05/28 05:32:33;;;;;;;27.27;23.27;;;461.40;2380.80;;;;;;5035202;28;20029;-84
2023/05/28 05:34:59;;;;;;;30.23;24.83;;;461.40;2380.80;;;;;;5034309;28;20026;-84
2023/05/28 05:37:25;;;;;;;28.30;22.88;;;461.60;2380.80;;;;;;5034377;28;20040;-85
2023/05/28 05:39:51;;;;;;;27.40;24.30;;;461.60;2380.80;;;;;;5033927;28;20124;-82
2023/05/28 05:42:16;;;;;;;30.63;24.15;;;461.60;2380.80;;;;;;5034416;28;20053;-83
2023/05/28 05:44:42;;;;;;;30.98;23.13;;;461.70;2380.80;;;;;;5034029;28;20429;-83
2023/05/28 05:47:08;;;;;;;24.00;21.38;;;461.70;2380.80;;;;;;5036171;28;20029;-83
2023/05/28 05:49:34;;;;;;;23.15;20.60;;;486.40;2380.80;;;;;;5052957;28;20114;-83
2023/05/28 05:51:59;;;;;;;21.75;17.67;;;486.40;2380.80;;;;;;5053914;28;20025;-83
2023/05/28 05:54:25;;;;;;;23.63;18.08;;;486.50;2380.80;;;;;;5053533;28;20545;-82
2023/05/28 05:56:52;;;;;;;20.58;17.42;;;486.50;2380.80;;;;;;5053823;28;20076;-84
2023/05/28 05:59:18;;;;;;;19.67;17.00;;;486.50;2380.80;;;;;;5053770;28;20025;-84
2023/05/28 06:01:44;;;;;;;18.33;16.30;;;486.50;2380.80;;;;;;5054460;28;20099;-85
2023/05/28 06:04:10;;;;;;;16.15;14.35;;;486.50;2380.80;;;;;;5053518;28;20090;-85
2023/05/28 06:06:37;;;;;;;18.63;14.90;;;486.70;2380.80;;;;;;5053508;28;20128;-84
2023/05/28 06:09:03;;;;;;;15.63;14.00;;;486.70;2380.80;;;;;;5054380;28;20353;-83
2023/05/28 06:11:29;;;;;;;14.52;12.73;;;486.70;2380.80;;;;;;5053579;28;20112;-83
2023/05/28 06:13:55;;;;;;;17.33;14.15;;;486.80;2380.80;;;;;;5053434;28;20464;-84
2023/05/28 06:16:21;;;;;;;13.93;12.40;;;487.00;2380.80;;;;;;5053211;28;20033;-84
2023/05/28 06:18:47;;;;;;;14.77;12.93;;;487.00;2380.80;;;;;;5054950;28;20032;-83
2023/05/28 06:21:13;;;;;;;15.38;12.95;;;487.10;2380.80;;;;;;5053496;28;20021;-84
2023/05/28 06:23:39;;;;;;;13.35;11.82;;;487.00;2380.80;;;;;;5053252;28;20093;-83
2023/05/28 06:26:05;;;;;;;14.57;13.07;;;487.10;2380.80;;;;;;5052951;28;20477;-84
2023/05/28 06:28:31;;;;;;;15.52;12.18;;;487.20;2380.80;;;;;;5053167;28;20024;-84
2023/05/28 06:30:57;;;;;;;14.60;12.77;;;487.20;2380.80;;;;;;5052654;28;20024;-83
2023/05/28 06:33:23;;;;;;;15.57;13.95;;;487.20;2380.80;;;;;;5053209;28;20372;-83
2023/05/28 06:35:48;;;;;;;16.75;14.20;;;487.20;2380.80;;;;;;5054124;28;20029;-82
2023/05/28 06:38:15;;;;;;;16.65;13.73;;;487.20;2380.80;;;;;;5053189;28;20029;-82
2023/05/28 06:40:40;;;;;;;15.77;14.18;;;487.20;2380.80;;;;;;5053079;28;20107;-82
2023/05/28 06:43:06;;;;;;;16.75;15.00;;;487.30;2380.80;;;;;;5054295;28;20103;-83
2023/05/28 06:45:32;;;;;;;17.13;14.10;;;487.30;2380.80;;;;;;5052796;28;20495;-82
2023/05/28 06:47:59;;;;;;;15.15;13.10;;;512.00;2380.80;;;;;;5054329;28;20469;-81
2023/05/28 06:50:25;;;;;;;21.83;14.10;;;512.00;2380.80;;;;;;5053912;28;20048;-82
2023/05/28 06:52:51;;;;;;;17.55;14.75;;;512.10;2380.80;;;;;;5053919;28;20059;-83
2023/05/28 06:55:16;;;;;;;16.17;14.45;;;512.10;2380.80;;;;;;5052738;28;20025;-83
2023/05/28 06:57:44;;;;;;;16.52;14.00;;;512.10;2380.80;;;;;;5052536;28;20071;-82
2023/05/28 07:00:14;;;;;;;15.50;13.02;;;512.20;2380.80;;;;;;5052905;28;20024;-82
2023/05/28 07:02:40;;;;;;;14.25;12.75;;;512.40;2380.80;;;;;;5052772;28;20029;-82
2023/05/28 07:05:06;;;;;;;16.35;14.52;;;512.50;2380.80;;;;;;5052095;28;20049;-83
2023/05/28 07:07:32;;;;;;;15.05;13.45;;;512.50;2380.80;;;;;;5052729;28;20488;-83
2023/05/28 07:09:58;;;;;;;16.83;13.52;;;512.50;2380.80;;;;;;5052685;28;20029;-82
2023/05/28 07:12:23;;;;;;;15.98;13.73;;;512.40;2380.80;;;;;;5053504;28;20029;-82
2023/05/28 07:14:49;;;;;;;15.77;14.07;;;512.50;2380.80;;;;;;5052515;28;20107;-82
2023/05/28 07:17:15;;;;;;;17.40;14.60;;;512.50;2380.80;;;;;;5052884;28;20468;-82
2023/05/28 07:19:41;;;;;;;17.10;14.55;;;512.50;2380.80;;;;;;5052388;28;20025;-83
2023/05/28 07:22:06;;;;;;;16.40;13.85;;;512.50;2380.80;;;;;;5053687;28;20108;-83
2023/05/28 07:24:32;;;;;;;16.40;14.45;;;512.50;2380.80;;;;;;5052582;28;20025;-83
2023/05/28 07:26:58;;;;;;;17.58;15.77;;;512.50;2380.80;;;;;;5052743;28;20480;-82
2023/05/28 07:29:28;;;;;;;16.25;14.45;;;512.60;2380.80;;;;;;5052501;28;20118;-83
2023/05/28 07:31:54;;;;;;;15.68;14.07;;;512.70;2380.80;;;;;;5052477;28;20051;-83
2023/05/28 07:34:20;;;;;;;17.98;14.88;;;512.90;2380.80;;;;;;5054470;28;20025;-82
2023/05/28 07:36:46;;;;;;;16.83;14.75;;;537.70;2406.40;;;;;;5060015;28;20043;-82
2023/05/28 07:39:13;;;;;;;16.33;14.60;;;537.80;2406.40;;;;;;5059277;28;20112;-82
2023/05/28 07:41:38;;;;;;;15.55;13.95;;;537.70;2406.40;;;;;;5058388;28;20025;-82
2023/05/28 07:44:06;;;;;;;16.80;14.85;;;537.80;2406.40;;;;;;5058984;28;20021;-84
2023/05/28 07:46:32;;;;;;;15.63;13.85;;;537.80;2406.40;;;;;;5056581;28;20033;-81
2023/05/28 07:48:58;;;;;;;15.93;14.18;;;537.70;2406.40;;;;;;5056335;28;20033;-82
2023/05/28 07:51:26;;;;;;;16.48;14.77;;;537.60;2406.40;;;;;;5056041;28;20485;-82
2023/05/28 07:53:52;;;;;;;15.35;13.75;;;537.60;2406.40;;;;;;5055927;28;20025;-82
2023/05/28 07:56:18;;;;;;;17.17;15.35;;;537.70;2406.40;;;;;;5056148;28;20039;-82
2023/05/28 07:58:45;;;;;;;17.42;15.32;;;537.70;2406.40;;;;;;5057481;28;20475;-83
2023/05/28 08:01:11;;;;;;;16.85;14.52;;;537.80;2406.40;;;;;;5055659;28;20036;-83
2023/05/28 08:03:36;;;;;;;18.48;16.38;;;537.80;2406.40;;;;;;5055969;28;20021;-82
2023/05/28 08:06:03;;;;;;;17.05;15.27;;;537.70;2406.40;;;;;;5055998;28;20106;-82
2023/05/28 08:08:29;;;;;;;16.63;14.07;;;537.80;2406.40;;;;;;5057164;28;20417;-83
2023/05/28 08:10:55;;;;;;;20.98;15.25;;;537.90;2406.40;;;;;;5056032;28;20025;-82
2023/05/28 08:13:21;;;;;;;16.58;14.88;;;537.90;2406.40;;;;;;5055433;28;20028;-80
2023/05/28 08:15:47;;;;;;;18.90;16.45;;;538.20;2406.40;;;;;;5057925;28;20372;-81
2023/05/28 08:18:13;;;;;;;16.75;14.95;;;538.10;2406.40;;;;;;5058876;28;20135;-79
2023/05/28 08:20:39;;;;;;;19.95;15.18;;;538.20;2406.40;;;;;;5065608;28;20025;-80
2023/05/28 08:23:05;;;;;;;17.90;15.48;;;538.10;2406.40;;;;;;5055615;28;20450;-81
2023/05/28 08:25:33;;;;;;;16.42;14.73;;;538.00;2406.40;;;;;;5055296;28;20033;-81
2023/05/28 08:27:58;;;;;;;18.90;15.60;;;538.00;2406.40;;;;;;5055111;28;20079;-81
2023/05/28 08:30:24;;;;;;;19.08;17.13;;;538.00;2406.40;;;;;;5055220;28;20452;-81
2023/05/28 08:32:50;;;;;;;20.48;15.80;;;538.00;2406.40;;;;;;5056749;28;20040;-82
2023/05/28 08:35:16;;;;;;;17.05;15.25;;;538.00;2406.40;;;;;;5054914;28;20032;-82
2023/05/28 08:37:42;;;;;;;19.30;16.20;;;538.00;2406.40;;;;;;5056376;28;20094;-82
2023/05/28 08:40:09;;;;;;;18.63;16.48;;;538.00;2406.40;;;;;;5055260;28;20056;-82
2023/05/28 08:42:35;;;;;;;19.10;17.10;;;538.00;2406.40;;;;;;5055080;28;20057;-81
2023/05/28 08:45:05;;;;;;;20.13;17.30;;;538.10;2406.40;;;;;;5055288;28;20115;-82
2023/05/28 08:47:36;;;;;;;17.90;16.05;;;563.20;2432.00;;;;;;5047157;28;20090;-80
2023/05/28 08:50:05;;;;;;;17.38;15.57;;;563.60;2432.00;;;;;;5056446;28;20556;-82
2023/05/28 08:52:34;;;;;;;17.77;15.05;;;564.10;2432.00;;;;;;5057770;28;20043;-80
2023/05/28 08:55:00;;;;;;;17.65;15.68;;;589.00;2432.00;;;;;;5055847;28;20053;-80
2023/05/28 08:57:29;;;;;;;17.25;15.45;;;588.80;2432.00;;;;;;5058211;28;20083;-81
2023/05/28 08:59:55;;;;;;;17.35;15.65;;;564.10;2432.00;;;;;;5057569;28;20479;-81
2023/05/28 09:02:24;;;;;;;17.27;15.48;;;564.00;2432.00;;;;;;5055030;28;20033;-80
2023/05/28 09:04:50;;;;;;;16.98;15.20;;;564.00;2432.00;;;;;;5054799;28;20476;-81
2023/05/28 09:07:16;;;;;;;18.48;16.40;;;563.80;2432.00;;;;;;5054902;28;20039;-80
2023/05/28 09:09:42;;;;;;;19.40;17.30;;;563.70;2432.00;;;;;;5054404;28;20506;-81
2023/05/28 09:12:21;;;;;;;18.95;15.95;;;563.60;2432.00;;;;;;5054479;28;20032;-80
2023/05/28 09:14:52;;;;;;;16.90;15.10;;;563.70;2432.00;;;;;;5054858;28;20055;-81
2023/05/28 09:17:31;;;;;;;19.05;15.85;;;563.80;2432.00;;;;;;5055557;28;20025;-81
2023/05/28 09:19:59;;;;;;;17.33;14.77;;;563.80;2432.00;;;;;;5056892;28;20053;-80
2023/05/28 09:22:26;;;;;;;17.85;14.88;;;563.70;2432.00;;;;;;5054856;28;20025;-80
2023/05/28 09:24:54;;;;;;;15.65;13.98;;;588.80;2432.00;;;;;;5056451;28;20083;-80
2023/05/28 09:27:22;;;;;;;16.50;13.90;;;589.30;2432.00;;;;;;5056390;28;20047;-83
2023/05/28 09:29:48;;;;;;;17.30;14.35;;;589.30;2432.00;;;;;;5056081;28;20033;-82
2023/05/28 09:32:21;;;;;;;15.57;14.00;;;589.40;2432.00;;;;;;5054746;28;20539;-81
2023/05/28 09:34:50;;;;;;;15.15;13.10;;;614.40;2432.00;;;;;;5054456;28;20029;-82
2023/05/28 09:37:17;;;;;;;13.70;12.23;;;614.70;2432.00;;;;;;5055540;28;20029;-81
2023/05/28 09:39:43;;;;;;;18.35;12.80;;;615.10;2432.00;;;;;;5054896;28;20025;-82
2023/05/28 09:42:10;;;;;;;12.80;11.43;;;615.30;2432.00;;;;;;5054851;28;20021;-82
2023/05/28 09:44:38;;;;;;;15.07;12.45;;;640.20;2432.00;;;;;;5053782;28;20268;-82
2023/05/28 09:47:17;;;;;;;17.17;12.77;;;640.20;2432.00;;;;;;5058007;28;20037;-82
2023/05/28 09:49:47;;;;;;;15.32;13.15;;;640.60;2432.00;;;;;;5056044;28;20059;-81
2023/05/28 09:52:20;;;;;;;13.63;11.63;;;640.70;2432.00;;;;;;5054819;28;20061;-83
2023/05/28 09:54:58;;;;;;;14.70;13.20;;;640.50;2432.00;;;;;;5054857;28;20025;-84
2023/05/28 09:57:32;;;;;;;14.27;12.02;;;640.90;2432.00;;;;;;5053368;28;20093;-83
2023/05/28 10:00:11;;;;;;;13.18;9.88;;;665.70;2432.00;;;;;;5054683;28;20028;-84
2023/05/28 10:03:02;;;;;;;11.88;10.68;;;666.00;2355.20;;;;;;5053640;28;20521;-84
2023/05/28 10:05:32;;;;;;;12.00;10.68;;;665.90;2380.80;;;;;;5052182;28;20132;-83
2023/05/28 10:08:00;;;;;;;12.45;11.10;;;665.60;2355.20;;;;;;5051968;28;20076;-83
2023/05/28 10:10:28;;;;;;;11.90;10.32;;;640.70;2406.40;;;;;;5053564;28;20037;-82
2023/05/28 10:12:56;;;;;;;11.88;10.60;;;640.50;2355.20;;;;;;5053270;28;20028;-82
2023/05/28 10:15:22;;;;;;;14.45;12.32;;;640.50;2380.80;;;;;;5052633;28;20037;-83
2023/05/28 10:17:50;;;;;;;16.70;11.32;;;640.50;2406.40;;;;;;5053300;28;20028;-83
2023/05/28 10:20:18;;;;;;;13.05;11.57;;;640.70;2380.80;;;;;;5051744;28;20029;-85
2023/05/28 10:22:44;;;;;;;13.60;11.85;;;665.90;2380.80;;;;;;5052730;28;20036;-82
2023/05/28 10:25:10;;;;;;;14.68;12.05;;;666.30;2355.20;;;;;;5052928;28;20171;-82
2023/05/28 10:27:45;;;;;;;13.38;11.25;;;691.20;2304.00;;;;;;5052869;28;20056;-81
2023/05/28 10:30:12;;;;;;;17.20;15.40;;;691.30;2227.20;;;;;;5054506;28;20025;-83
2023/05/28 10:32:47;;;;;;;13.52;10.45;;;666.50;2278.40;;;;;;5052901;28;20376;-82
2023/05/28 10:35:13;;;;;;;14.00;12.38;;;691.40;2227.20;;;;;;5052633;28;20475;-83
2023/05/28 10:37:39;;;;;;;14.95;12.55;;;691.60;2252.80;;;;;;5052797;28;20033;-82
2023/05/28 10:40:10;;;;;;;14.50;10.88;;;691.30;2278.40;;;;;;5054095;28;20029;-82
2023/05/28 10:42:43;;;;;;;15.07;13.13;;;666.40;2304.00;;;;;;5050822;28;20047;-82
2023/05/28 10:45:12;;;;;;;12.45;11.25;;;665.90;2329.60;;;;;;5052544;28;20039;-82
2023/05/28 10:47:51;;;;;;;11.80;10.60;;;665.60;2355.20;;;;;;5053977;28;20025;-82
2023/05/28 10:50:18;;;;;;;12.70;11.40;;;640.70;2329.60;;;;;;5052855;28;20376;-81
2023/05/28 10:53:06;;;;;;;14.10;11.85;;;640.60;2329.60;;;;;;5053031;28;20029;-84
2023/05/28 10:55:51;;;;;;;12.98;10.82;;;665.70;2329.60;;;;;;5052701;28;20064;-84
2023/05/28 10:58:27;;;;;;;12.07;10.88;;;665.70;2329.60;;;;;;5052756;28;20443;-84
2023/05/28 11:01:03;;;;;;;13.63;11.48;;;640.90;2329.60;;;;;;5052716;28;20049;-82
2023/05/28 11:03:51;;;;;;;12.52;10.85;;;640.60;2380.80;;;;;;5051253;28;20083;-83
2023/05/28 11:06:17;;;;;;;22.73;18.63;;;640.50;2355.20;;;;;;5051160;28;20158;-82
2023/05/28 11:08:45;;;;;;;22.10;19.23;;;640.50;2329.60;;;;;;5034176;28;20119;-84
2023/05/28 11:11:12;;;;;;;17.17;12.00;;;640.70;2329.60;;;;;;5051988;28;20033;-84
2023/05/28 11:13:41;;;;;;;17.23;13.48;;;665.80;2304.00;;;;;;5035676;28;20041;-83
2023/05/28 11:16:08;;;;;;;14.00;11.88;;;665.80;2329.60;;;;;;5051973;28;20119;-86
2023/05/28 11:18:34;;;;;;;13.65;11.07;;;665.70;2304.00;;;;;;5051861;28;20048;-84
2023/05/28 11:21:07;;;;;;;8.25;7.30;;;640.90;2278.40;;;;;;5034939;28;20025;-84
2023/05/28 11:23:33;;;;;;;10.20;8.13;;;665.60;2304.00;;;;;;5051501;28;20064;-84
2023/05/28 11:25:59;;;;;;;10.27;7.82;;;640.90;2278.40;;;;;;5051719;28;20435;-83
2023/05/28 11:28:25;;;;;;;11.20;8.32;;;665.60;2278.40;;;;;;5050968;28;20039;-83
2023/05/28 11:30:52;;;;;;;11.32;8.55;;;665.70;2304.00;;;;;;5051626;28;20536;-83
2023/05/28 11:33:18;;;;;;;9.20;7.78;;;665.90;2304.00;;;;;;5034713;28;20094;-83
2023/05/28 11:35:43;;;;;;;10.63;8.63;;;665.90;2304.00;;;;;;5052303;28;20119;-83
2023/05/28 11:38:09;;;;;;;11.18;8.75;;;665.70;2329.60;;;;;;5054884;28;20098;-83
2023/05/28 11:40:35;;;;;;;10.55;9.45;;;640.90;2278.40;;;;;;5065110;28;20021;-82
2023/05/28 11:43:01;;;;;;;12.52;8.25;;;640.90;2329.60;;;;;;5053502;28;20029;-83
2023/05/28 11:45:27;;;;;;;9.85;8.23;;;640.90;2355.20;;;;;;5060022;28;20029;-84
2023/05/28 11:47:54;;;;;;;12.10;8.63;;;640.70;2304.00;;;;;;5061780;28;20025;-82
2023/05/28 11:50:22;;;;;;;9.27;6.95;;;640.70;2329.60;;;;;;5056161;28;20028;-83
2023/05/28 11:52:49;;;;;;;11.63;7.35;;;665.90;2304.00;;;;;;5039268;28;20030;-82
2023/05/28 11:55:15;;;;;;;9.60;7.13;;;666.50;2227.20;;;;;;5032226;28;20022;-83
2023/05/28 11:57:53;;;;;;;9.57;7.25;;;691.40;2201.60;;;;;;5032176;28;20032;-83
2023/05/28 12:00:20;;;;;;;9.95;7.00;;;691.70;2201.60;;;;;;5033483;28;20026;-81